createdAt,value
2023-02-12T00:00:04.311Z,1027.9
2023-02-12T00:01:04.365Z,1027.9
2023-02-12T00:02:04.351Z,1027.9
2023-02-12T00:03:04.312Z,1027.8
2023-02-12T00:04:04.276Z,1027.8
2023-02-12T00:05:04.369Z,1027.8
2023-02-12T00:06:04.346Z,1027.8
2023-02-12T00:07:04.303Z,1027.8
2023-02-12T00:08:04.353Z,1027.8
2023-02-12T00:09:04.338Z,1027.8
2023-02-12T00:10:04.355Z,1027.8
2023-02-12T00:11:04.337Z,1027.9
2023-02-12T00:12:04.341Z,1027.8
2023-02-12T00:13:04.320Z,1027.8
2023-02-12T00:14:04.417Z,1027.8
2023-02-12T00:15:04.337Z,1027.8
2023-02-12T00:16:04.308Z,1027.8
2023-02-12T00:17:04.334Z,1027.8
2023-02-12T00:18:04.402Z,1027.8
2023-02-12T00:19:04.319Z,1027.8
2023-02-12T00:20:04.381Z,1027.9
2023-02-12T00:21:04.358Z,1027.9
2023-02-12T00:22:04.289Z,1027.9
2023-02-12T00:23:04.308Z,1027.9
2023-02-12T00:24:04.297Z,1027.9
2023-02-12T00:25:04.577Z,1027.9
2023-02-12T00:26:04.324Z,1027.8
2023-02-12T00:27:04.317Z,1027.8
2023-02-12T00:28:04.324Z,1027.8
2023-02-12T00:29:04.304Z,1027.8
2023-02-12T00:30:04.321Z,1027.8
2023-02-12T00:31:04.428Z,1027.8
2023-02-12T00:32:04.395Z,1027.8
2023-02-12T00:33:04.326Z,1027.9
2023-02-12T00:34:04.310Z,1027.9
2023-02-12T00:35:04.335Z,1027.9
2023-02-12T00:36:04.293Z,1027.9
2023-02-12T00:37:04.382Z,1027.8
2023-02-12T00:39:58.209Z,1027.8
2023-02-12T00:40:04.480Z,1027.8
2023-02-12T00:41:05.282Z,1027.8
2023-02-12T00:42:04.469Z,1027.8
2023-02-12T00:43:04.734Z,1027.8
2023-02-12T00:44:04.474Z,1027.9
2023-02-12T00:45:04.538Z,1027.9
2023-02-12T00:46:04.623Z,1027.9
2023-02-12T00:47:05.712Z,1027.9
2023-02-12T00:48:05.912Z,1027.9
2023-02-12T00:49:04.530Z,1027.9
2023-02-12T00:50:04.568Z,1027.9
2023-02-12T00:51:04.600Z,1027.9
2023-02-12T00:52:04.585Z,1027.9
2023-02-12T00:53:04.622Z,1027.9
2023-02-12T00:54:04.480Z,1027.9
2023-02-12T00:55:04.561Z,1027.9
2023-02-12T00:56:04.485Z,1027.9
2023-02-12T00:57:04.522Z,1027.9
2023-02-12T00:58:04.493Z,1027.9
2023-02-12T00:59:04.582Z,1027.9
2023-02-12T01:00:04.477Z,1027.9
2023-02-12T01:01:04.551Z,1027.9
2023-02-12T01:02:04.520Z,1028.0
2023-02-12T01:03:04.590Z,1028.0
2023-02-12T01:04:04.546Z,1028.0
2023-02-12T01:05:04.591Z,1028.0
2023-02-12T01:06:05.464Z,1028.0
2023-02-12T01:07:04.544Z,1027.9
2023-02-12T01:08:04.502Z,1027.9
2023-02-12T01:09:04.726Z,1027.9
2023-02-12T01:10:04.505Z,1027.9
2023-02-12T01:11:04.520Z,1027.9
2023-02-12T01:12:04.480Z,1027.9
2023-02-12T01:13:04.581Z,1027.9
2023-02-12T01:14:04.498Z,1027.8
2023-02-12T01:15:04.563Z,1027.9
2023-02-12T01:16:04.610Z,1027.9
2023-02-12T01:17:04.515Z,1027.9
2023-02-12T01:18:04.516Z,1027.9
2023-02-12T01:19:04.549Z,1027.9
2023-02-12T01:20:04.532Z,1027.9
2023-02-12T01:21:04.559Z,1027.9
2023-02-12T01:22:04.487Z,1027.9
2023-02-12T01:23:04.510Z,1027.9
2023-02-12T01:24:04.499Z,1027.9
2023-02-12T01:25:04.563Z,1027.9
2023-02-12T01:26:04.616Z,1027.9
2023-02-12T01:27:04.537Z,1027.9
2023-02-12T01:28:04.541Z,1027.9
2023-02-12T01:29:04.524Z,1027.9
2023-02-12T01:30:05.565Z,1027.9
2023-02-12T01:31:04.640Z,1027.9
2023-02-12T01:32:04.723Z,1027.9
2023-02-12T01:33:04.515Z,1027.9
2023-02-12T01:34:04.494Z,1027.9
2023-02-12T01:35:04.520Z,1027.9
2023-02-12T01:36:04.482Z,1027.9
2023-02-12T01:37:04.542Z,1027.9
2023-02-12T01:38:04.539Z,1027.9
2023-02-12T01:39:04.537Z,1027.9
2023-02-12T01:40:04.515Z,1027.9
2023-02-12T01:41:04.514Z,1027.9
2023-02-12T01:42:04.580Z,1027.9
2023-02-12T01:43:57.423Z,1027.9
2023-02-12T01:45:05.848Z,1027.9
2023-02-12T01:46:04.646Z,1027.9
2023-02-12T01:47:05.297Z,1027.9
2023-02-12T01:48:04.713Z,1027.9
2023-02-12T01:49:04.622Z,1027.9
2023-02-12T01:50:04.662Z,1027.9
2023-02-12T01:51:04.597Z,1027.8
2023-02-12T01:52:04.641Z,1027.8
2023-02-12T01:53:04.598Z,1027.8
2023-02-12T01:54:04.622Z,1027.8
2023-02-12T01:55:04.612Z,1027.8
2023-02-12T01:56:04.636Z,1027.8
2023-02-12T01:57:04.590Z,1027.8
2023-02-12T01:58:04.615Z,1027.9
2023-02-12T01:59:04.629Z,1027.8
2023-02-12T02:00:04.602Z,1027.8
2023-02-12T02:01:04.773Z,1027.9
2023-02-12T02:02:04.727Z,1027.8
2023-02-12T02:03:04.719Z,1027.9
2023-02-12T02:04:04.634Z,1027.8
2023-02-12T02:05:04.597Z,1027.8
2023-02-12T02:06:11.395Z,1027.8
2023-02-12T02:07:04.949Z,1027.7
2023-02-12T02:08:10.793Z,1027.7
2023-02-12T02:09:04.546Z,1027.7
2023-02-12T02:10:11.905Z,1027.7
2023-02-12T02:11:04.654Z,1027.7
2023-02-12T02:12:11.052Z,1027.7
2023-02-12T02:13:10.874Z,1027.7
2023-02-12T02:14:04.569Z,1027.7
2023-02-12T02:15:05.308Z,1027.7
2023-02-12T02:16:04.572Z,1027.7
2023-02-12T02:17:04.601Z,1027.7
2023-02-12T02:18:04.612Z,1027.7
2023-02-12T02:19:04.618Z,1027.7
2023-02-12T02:20:04.594Z,1027.7
2023-02-12T02:21:04.574Z,1027.7
2023-02-12T02:22:04.635Z,1027.7
2023-02-12T02:23:04.659Z,1027.7
2023-02-12T02:24:04.644Z,1027.7
2023-02-12T02:25:04.604Z,1027.7
2023-02-12T02:26:04.609Z,1027.7
2023-02-12T02:27:04.596Z,1027.7
2023-02-12T02:28:04.641Z,1027.7
2023-02-12T02:29:04.578Z,1027.7
2023-02-12T02:30:04.637Z,1027.7
2023-02-12T02:31:04.740Z,1027.7
2023-02-12T02:32:04.659Z,1027.7
2023-02-12T02:33:11.400Z,1027.7
2023-02-12T02:34:05.707Z,1027.7
2023-02-12T02:35:04.118Z,1027.8
2023-02-12T02:36:11.763Z,1027.7
2023-02-12T02:37:04.520Z,1027.7
2023-02-12T02:38:05.565Z,1027.7
2023-02-12T02:39:04.580Z,1027.7
2023-02-12T02:40:11.406Z,1027.8
2023-02-12T02:41:10.935Z,1027.8
2023-02-12T02:42:04.495Z,1027.8
2023-02-12T02:43:04.465Z,1027.8
2023-02-12T02:44:04.987Z,1027.8
2023-02-12T02:45:04.464Z,1027.8
2023-02-12T02:46:04.491Z,1027.8
2023-02-12T02:47:04.515Z,1027.8
2023-02-12T02:48:04.508Z,1027.8
2023-02-12T02:49:04.536Z,1027.8
2023-02-12T02:50:04.506Z,1027.8
2023-02-12T02:51:04.499Z,1027.8
2023-02-12T02:52:04.513Z,1027.8
2023-02-12T02:53:04.546Z,1027.8
2023-02-12T02:54:05.545Z,1027.8
2023-02-12T02:55:04.483Z,1027.8
2023-02-12T02:56:04.620Z,1027.8
2023-02-12T02:57:11.189Z,1027.8
2023-02-12T02:58:10.768Z,1027.8
2023-02-12T02:59:15.489Z,1027.8
2023-02-12T03:01:04.017Z,1027.7
2023-02-12T03:02:03.970Z,1027.7
2023-02-12T03:03:03.944Z,1027.7
2023-02-12T03:04:03.981Z,1027.7
2023-02-12T03:05:03.902Z,1027.7
2023-02-12T03:06:03.967Z,1027.7
2023-02-12T03:07:03.923Z,1027.7
2023-02-12T03:08:03.972Z,1027.7
2023-02-12T03:09:03.937Z,1027.7
2023-02-12T03:10:04.248Z,1027.7
2023-02-12T03:11:04.027Z,1027.7
2023-02-12T03:12:04.061Z,1027.7
2023-02-12T03:13:04.032Z,1027.7
2023-02-12T03:14:03.933Z,1027.7
2023-02-12T03:15:03.930Z,1027.7
2023-02-12T03:16:04.018Z,1027.7
2023-02-12T03:17:03.920Z,1027.7
2023-02-12T03:18:03.952Z,1027.7
2023-02-12T03:19:03.935Z,1027.7
2023-02-12T03:20:03.952Z,1027.7
2023-02-12T03:21:03.912Z,1027.6
2023-02-12T03:22:04.239Z,1027.7
2023-02-12T03:23:03.932Z,1027.7
2023-02-12T03:24:04.975Z,1027.7
2023-02-12T03:25:03.934Z,1027.7
2023-02-12T03:26:03.956Z,1027.7
2023-02-12T03:27:11.150Z,1027.8
2023-02-12T03:28:03.905Z,1027.7
2023-02-12T03:29:03.890Z,1027.7
2023-02-12T03:30:03.859Z,1027.7
2023-02-12T03:31:03.967Z,1027.7
2023-02-12T03:32:03.886Z,1027.7
2023-02-12T03:33:03.938Z,1027.7
2023-02-12T03:34:03.876Z,1027.7
2023-02-12T03:35:03.909Z,1027.7
2023-02-12T03:36:03.887Z,1027.8
2023-02-12T03:37:03.894Z,1027.8
2023-02-12T03:38:03.875Z,1027.8
2023-02-12T03:39:04.041Z,1027.7
2023-02-12T03:40:03.884Z,1027.7
2023-02-12T03:41:03.882Z,1027.7
2023-02-12T03:42:03.856Z,1027.7
2023-02-12T03:43:03.896Z,1027.7
2023-02-12T03:44:03.864Z,1027.7
2023-02-12T03:45:03.961Z,1027.7
2023-02-12T03:46:03.998Z,1027.8
2023-02-12T03:47:03.908Z,1027.8
2023-02-12T03:48:03.867Z,1027.8
2023-02-12T03:49:03.936Z,1027.8
2023-02-12T03:50:03.858Z,1027.8
2023-02-12T03:51:03.952Z,1027.8
2023-02-12T03:52:03.884Z,1027.8
2023-02-12T03:53:03.933Z,1027.8
2023-02-12T03:54:03.967Z,1027.8
2023-02-12T03:55:03.881Z,1027.8
2023-02-12T03:56:03.866Z,1027.8
2023-02-12T03:57:04.922Z,1027.8
2023-02-12T03:58:03.901Z,1027.8
2023-02-12T03:59:03.890Z,1027.8
2023-02-12T04:00:04.491Z,1027.8
2023-02-12T04:01:03.949Z,1027.8
2023-02-12T04:02:03.896Z,1027.8
2023-02-12T04:03:03.905Z,1027.8
2023-02-12T04:04:03.896Z,1027.8
2023-02-12T04:05:03.902Z,1027.8
2023-02-12T04:06:03.855Z,1027.8
2023-02-12T04:07:04.020Z,1027.8
2023-02-12T04:08:03.860Z,1027.8
2023-02-12T04:09:03.947Z,1027.8
2023-02-12T04:10:03.866Z,1027.8
2023-02-12T04:11:03.882Z,1027.8
2023-02-12T04:12:03.883Z,1027.8
2023-02-12T04:13:03.906Z,1027.8
2023-02-12T04:14:03.903Z,1027.8
2023-02-12T04:15:03.924Z,1027.8
2023-02-12T04:16:03.867Z,1027.8
2023-02-12T04:17:03.985Z,1027.8
2023-02-12T04:20:00.595Z,1027.9
2023-02-12T04:20:04.768Z,1027.9
2023-02-12T04:21:04.318Z,1027.9
2023-02-12T04:22:04.260Z,1027.9
2023-02-12T04:23:04.312Z,1027.9
2023-02-12T04:24:04.327Z,1027.9
2023-02-12T04:25:04.310Z,1027.9
2023-02-12T04:26:04.312Z,1027.9
2023-02-12T04:27:04.337Z,1027.9
2023-02-12T04:28:04.274Z,1027.9
2023-02-12T04:29:04.320Z,1027.9
2023-02-12T04:30:04.287Z,1028.0
2023-02-12T04:31:04.385Z,1028.0
2023-02-12T04:32:04.318Z,1028.0
2023-02-12T04:33:04.333Z,1028.0
2023-02-12T04:34:04.281Z,1028.0
2023-02-12T04:35:04.310Z,1027.9
2023-02-12T04:36:04.295Z,1027.9
2023-02-12T04:37:04.367Z,1028.0
2023-02-12T04:38:04.315Z,1027.9
2023-02-12T04:39:04.323Z,1027.9
2023-02-12T04:40:04.288Z,1027.9
2023-02-12T04:41:04.355Z,1027.9
2023-02-12T04:42:04.439Z,1027.9
2023-02-12T04:43:04.431Z,1027.9
2023-02-12T04:44:04.437Z,1027.9
2023-02-12T04:45:04.423Z,1027.9
2023-02-12T04:46:04.473Z,1027.9
2023-02-12T04:47:04.420Z,1028.0
2023-02-12T04:48:04.316Z,1028.0
2023-02-12T04:49:04.303Z,1028.0
2023-02-12T04:50:04.327Z,1028.0
2023-02-12T04:51:04.367Z,1028.0
2023-02-12T04:52:04.331Z,1028.0
2023-02-12T04:53:04.321Z,1028.0
2023-02-12T04:54:04.296Z,1028.0
2023-02-12T04:55:04.336Z,1028.0
2023-02-12T04:56:04.387Z,1028.0
2023-02-12T04:57:04.346Z,1028.0
2023-02-12T04:58:04.303Z,1028.0
2023-02-12T04:59:04.330Z,1028.0
2023-02-12T05:00:04.324Z,1028.0
2023-02-12T05:01:04.342Z,1028.0
2023-02-12T05:02:04.328Z,1028.0
2023-02-12T05:03:04.334Z,1028.0
2023-02-12T05:04:04.303Z,1028.0
2023-02-12T05:05:04.467Z,1028.0
2023-02-12T05:06:04.311Z,1028.0
2023-02-12T05:07:04.324Z,1028.0
2023-02-12T05:08:04.338Z,1028.0
2023-02-12T05:09:04.338Z,1028.0
2023-02-12T05:10:04.308Z,1027.9
2023-02-12T05:11:04.346Z,1028.0
2023-02-12T05:12:04.314Z,1027.9
2023-02-12T05:13:04.382Z,1027.9
2023-02-12T05:15:54.977Z,1027.9
2023-02-12T05:16:04.366Z,1027.9
2023-02-12T05:17:04.343Z,1028.0
2023-02-12T05:18:04.316Z,1028.0
2023-02-12T05:19:04.340Z,1027.9
2023-02-12T05:20:04.341Z,1028.0
2023-02-12T05:21:04.345Z,1028.0
2023-02-12T05:22:04.348Z,1028.0
2023-02-12T05:23:04.362Z,1028.0
2023-02-12T05:24:05.136Z,1027.9
2023-02-12T05:25:04.365Z,1027.9
2023-02-12T05:26:04.440Z,1027.9
2023-02-12T05:27:04.408Z,1027.9
2023-02-12T05:28:04.354Z,1027.9
2023-02-12T05:29:04.351Z,1027.9
2023-02-12T05:30:04.308Z,1027.9
2023-02-12T05:31:04.410Z,1027.9
2023-02-12T05:32:04.531Z,1027.9
2023-02-12T05:33:04.347Z,1027.9
2023-02-12T05:34:04.329Z,1027.9
2023-02-12T05:35:04.351Z,1027.9
2023-02-12T05:36:04.308Z,1027.9
2023-02-12T05:37:04.337Z,1027.9
2023-02-12T05:38:04.380Z,1027.9
2023-02-12T05:39:04.456Z,1027.9
2023-02-12T05:40:04.300Z,1027.9
2023-02-12T05:41:04.352Z,1027.9
2023-02-12T05:42:04.313Z,1027.9
2023-02-12T05:43:04.351Z,1027.8
2023-02-12T05:44:04.360Z,1027.9
2023-02-12T05:45:04.338Z,1027.9
2023-02-12T05:46:04.350Z,1027.9
2023-02-12T05:47:04.340Z,1027.9
2023-02-12T05:48:04.346Z,1027.9
2023-02-12T05:49:04.334Z,1027.9
2023-02-12T05:50:04.405Z,1027.9
2023-02-12T05:51:04.324Z,1027.9
2023-02-12T05:52:04.340Z,1027.9
2023-02-12T05:53:05.864Z,1027.9
2023-02-12T05:54:04.375Z,1027.9
2023-02-12T05:55:04.357Z,1027.9
2023-02-12T05:56:04.384Z,1027.9
2023-02-12T05:57:04.374Z,1027.9
2023-02-12T05:58:04.337Z,1027.9
2023-02-12T05:59:04.360Z,1027.9
2023-02-12T06:00:04.339Z,1027.9
2023-02-12T06:01:04.374Z,1027.9
2023-02-12T06:02:04.368Z,1027.9
2023-02-12T06:03:04.338Z,1027.9
2023-02-12T06:04:04.396Z,1027.9
2023-02-12T06:05:04.363Z,1027.9
2023-02-12T06:06:04.314Z,1027.9
2023-02-12T06:07:04.349Z,1027.9
2023-02-12T06:08:04.359Z,1027.9
2023-02-12T06:09:04.382Z,1027.9
2023-02-12T06:10:04.333Z,1027.9
2023-02-12T06:11:04.339Z,1028.0
2023-02-12T06:12:04.343Z,1028.0
2023-02-12T06:13:04.392Z,1027.9
2023-02-12T06:14:04.348Z,1028.0
2023-02-12T06:15:04.352Z,1027.9
2023-02-12T06:16:04.458Z,1027.9
2023-02-12T06:17:04.360Z,1027.9
2023-02-12T06:18:04.323Z,1028.0
2023-02-12T06:20:37.221Z,1027.9
2023-02-12T06:21:04.743Z,1028.0
2023-02-12T06:22:03.844Z,1028.0
2023-02-12T06:23:03.874Z,1028.0
2023-02-12T06:24:03.915Z,1028.0
2023-02-12T06:25:03.891Z,1028.0
2023-02-12T06:26:03.935Z,1028.0
2023-02-12T06:27:03.912Z,1028.0
2023-02-12T06:28:03.956Z,1028.0
2023-02-12T06:29:03.892Z,1028.0
2023-02-12T06:30:03.854Z,1028.1
2023-02-12T06:31:04.029Z,1028.0
2023-02-12T06:32:04.083Z,1028.0
2023-02-12T06:33:03.882Z,1028.0
2023-02-12T06:34:04.121Z,1028.0
2023-02-12T06:35:03.879Z,1028.1
2023-02-12T06:36:03.864Z,1028.1
2023-02-12T06:37:03.916Z,1028.0
2023-02-12T06:38:03.900Z,1028.0
2023-02-12T06:39:03.901Z,1028.1
2023-02-12T06:40:03.878Z,1028.1
2023-02-12T06:41:03.884Z,1028.1
2023-02-12T06:42:03.882Z,1028.1
2023-02-12T06:43:03.904Z,1028.2
2023-02-12T06:44:03.897Z,1028.1
2023-02-12T06:45:03.897Z,1028.1
2023-02-12T06:46:03.883Z,1028.2
2023-02-12T06:47:03.903Z,1028.2
2023-02-12T06:48:03.869Z,1028.2
2023-02-12T06:49:03.886Z,1028.2
2023-02-12T06:50:03.913Z,1028.2
2023-02-12T06:51:03.897Z,1028.2
2023-02-12T06:52:03.870Z,1028.2
2023-02-12T06:53:03.904Z,1028.3
2023-02-12T06:54:03.882Z,1028.3
2023-02-12T06:55:03.900Z,1028.3
2023-02-12T06:56:03.900Z,1028.3
2023-02-12T06:57:03.878Z,1028.3
2023-02-12T06:58:03.892Z,1028.3
2023-02-12T06:59:03.903Z,1028.3
2023-02-12T07:00:03.898Z,1028.3
2023-02-12T07:01:03.920Z,1028.3
2023-02-12T07:02:03.908Z,1028.3
2023-02-12T07:03:03.912Z,1028.3
2023-02-12T07:04:03.975Z,1028.4
2023-02-12T07:05:03.918Z,1028.4
2023-02-12T07:06:03.891Z,1028.4
2023-02-12T07:07:03.908Z,1028.4
2023-02-12T07:08:03.909Z,1028.4
2023-02-12T07:09:04.833Z,1028.4
2023-02-12T07:10:03.864Z,1028.5
2023-02-12T07:11:03.919Z,1028.5
2023-02-12T07:12:03.898Z,1028.5
2023-02-12T07:13:03.902Z,1028.5
2023-02-12T07:14:03.939Z,1028.5
2023-02-12T07:15:03.899Z,1028.5
2023-02-12T07:16:03.880Z,1028.5
2023-02-12T07:17:03.925Z,1028.5
2023-02-12T07:18:03.871Z,1028.5
2023-02-12T07:19:03.944Z,1028.5
2023-02-12T07:20:03.925Z,1028.5
2023-02-12T07:21:03.920Z,1028.5
2023-02-12T07:23:04.410Z,1028.5
2023-02-12T07:23:08.402Z,1028.5
2023-02-12T07:24:03.882Z,1028.5
2023-02-12T07:25:03.948Z,1028.5
2023-02-12T07:26:03.930Z,1028.5
2023-02-12T07:27:03.896Z,1028.6
2023-02-12T07:28:03.907Z,1028.5
2023-02-12T07:29:03.894Z,1028.6
2023-02-12T07:30:03.898Z,1028.6
2023-02-12T07:31:04.054Z,1028.6
2023-02-12T07:32:04.062Z,1028.6
2023-02-12T07:33:03.918Z,1028.6
2023-02-12T07:34:03.888Z,1028.6
2023-02-12T07:35:03.906Z,1028.6
2023-02-12T07:36:03.897Z,1028.5
2023-02-12T07:37:03.923Z,1028.5
2023-02-12T07:38:03.921Z,1028.6
2023-02-12T07:39:03.914Z,1028.6
2023-02-12T07:40:03.888Z,1028.6
2023-02-12T07:41:03.924Z,1028.6
2023-02-12T07:42:03.910Z,1028.6
2023-02-12T07:43:03.904Z,1028.6
2023-02-12T07:44:03.969Z,1028.7
2023-02-12T07:45:03.899Z,1028.6
2023-02-12T07:46:03.914Z,1028.7
2023-02-12T07:47:03.921Z,1028.6
2023-02-12T07:48:03.932Z,1028.6
2023-02-12T07:49:03.922Z,1028.6
2023-02-12T07:50:03.922Z,1028.7
2023-02-12T07:51:03.910Z,1028.7
2023-02-12T07:52:03.895Z,1028.7
2023-02-12T07:53:03.901Z,1028.7
2023-02-12T07:54:03.906Z,1028.7
2023-02-12T07:55:03.955Z,1028.7
2023-02-12T07:56:03.966Z,1028.7
2023-02-12T07:57:03.931Z,1028.7
2023-02-12T07:58:03.890Z,1028.7
2023-02-12T07:59:03.948Z,1028.7
2023-02-12T08:00:03.887Z,1028.7
2023-02-12T08:01:03.953Z,1028.7
2023-02-12T08:02:03.946Z,1028.7
2023-02-12T08:03:03.912Z,1028.7
2023-02-12T08:04:03.933Z,1028.8
2023-02-12T08:05:03.925Z,1028.8
2023-02-12T08:06:03.893Z,1028.8
2023-02-12T08:07:03.958Z,1028.8
2023-02-12T08:08:03.921Z,1028.8
2023-02-12T08:09:03.927Z,1028.8
2023-02-12T08:10:03.903Z,1028.8
2023-02-12T08:11:03.927Z,1028.8
2023-02-12T08:12:03.916Z,1028.8
2023-02-12T08:13:04.061Z,1028.8
2023-02-12T08:14:04.912Z,1028.8
2023-02-12T08:15:03.922Z,1028.8
2023-02-12T08:16:03.947Z,1028.8
2023-02-12T08:17:03.920Z,1028.8
2023-02-12T08:18:03.904Z,1028.8
2023-02-12T08:20:54.182Z,1028.8
2023-02-12T08:21:03.901Z,1028.9
2023-02-12T08:22:04.612Z,1028.9
2023-02-12T08:23:03.872Z,1028.9
2023-02-12T08:24:03.877Z,1028.9
2023-02-12T08:25:03.919Z,1028.9
2023-02-12T08:26:03.919Z,1028.8
2023-02-12T08:27:03.910Z,1028.8
2023-02-12T08:28:04.125Z,1028.8
2023-02-12T08:29:03.891Z,1028.9
2023-02-12T08:30:03.886Z,1028.9
2023-02-12T08:31:04.011Z,1028.9
2023-02-12T08:32:04.032Z,1028.8
2023-02-12T08:33:03.889Z,1028.9
2023-02-12T08:34:03.864Z,1028.9
2023-02-12T08:35:03.896Z,1028.9
2023-02-12T08:36:03.853Z,1028.9
2023-02-12T08:37:03.893Z,1028.9
2023-02-12T08:38:03.901Z,1028.9
2023-02-12T08:39:03.926Z,1028.9
2023-02-12T08:40:03.851Z,1028.9
2023-02-12T08:41:04.030Z,1028.8
2023-02-12T08:42:03.871Z,1028.9
2023-02-12T08:43:03.884Z,1028.9
2023-02-12T08:44:03.963Z,1028.9
2023-02-12T08:45:03.887Z,1028.9
2023-02-12T08:46:03.921Z,1028.9
2023-02-12T08:47:03.892Z,1028.9
2023-02-12T08:48:03.866Z,1028.9
2023-02-12T08:49:03.915Z,1028.9
2023-02-12T08:50:03.905Z,1028.9
2023-02-12T08:51:03.885Z,1028.9
2023-02-12T08:52:04.065Z,1028.9
2023-02-12T08:53:03.946Z,1028.9
2023-02-12T08:54:03.910Z,1029.0
2023-02-12T08:55:03.922Z,1028.9
2023-02-12T08:56:03.900Z,1029.0
2023-02-12T08:57:03.902Z,1028.9
2023-02-12T08:58:03.866Z,1029.0
2023-02-12T08:59:03.889Z,1029.0
2023-02-12T09:00:03.878Z,1029.0
2023-02-12T09:01:03.938Z,1029.0
2023-02-12T09:02:03.961Z,1028.9
2023-02-12T09:03:03.945Z,1028.9
2023-02-12T09:04:03.864Z,1029.0
2023-02-12T09:05:03.916Z,1029.0
2023-02-12T09:06:03.861Z,1029.0
2023-02-12T09:07:03.933Z,1029.0
2023-02-12T09:08:03.912Z,1029.0
2023-02-12T09:09:03.897Z,1029.0
2023-02-12T09:10:03.863Z,1029.0
2023-02-12T09:11:04.060Z,1029.0
2023-02-12T09:12:04.751Z,1029.0
2023-02-12T09:13:04.001Z,1029.0
2023-02-12T09:14:03.874Z,1029.1
2023-02-12T09:15:03.880Z,1029.1
2023-02-12T09:16:03.885Z,1029.1
2023-02-12T09:17:03.980Z,1029.1
2023-02-12T09:18:03.862Z,1029.1
2023-02-12T09:19:03.889Z,1029.1
2023-02-12T09:21:30.821Z,1029.1
2023-02-12T09:21:34.808Z,1029.1
2023-02-12T09:22:03.892Z,1029.1
2023-02-12T09:23:03.926Z,1029.0
2023-02-12T09:24:03.977Z,1029.0
2023-02-12T09:25:03.904Z,1029.0
2023-02-12T09:26:03.879Z,1029.0
2023-02-12T09:27:03.907Z,1029.0
2023-02-12T09:28:03.911Z,1029.0
2023-02-12T09:29:03.935Z,1029.0
2023-02-12T09:30:04.598Z,1029.0
2023-02-12T09:31:03.992Z,1029.0
2023-02-12T09:32:03.936Z,1029.0
2023-02-12T09:33:03.949Z,1029.0
2023-02-12T09:34:03.932Z,1029.0
2023-02-12T09:35:04.044Z,1029.0
2023-02-12T09:36:03.956Z,1029.1
2023-02-12T09:37:03.958Z,1029.0
2023-02-12T09:38:03.978Z,1029.1
2023-02-12T09:39:03.912Z,1029.0
2023-02-12T09:40:03.904Z,1029.1
2023-02-12T09:41:03.944Z,1029.1
2023-02-12T09:42:04.800Z,1029.1
2023-02-12T09:43:03.912Z,1029.1
2023-02-12T09:44:03.887Z,1029.1
2023-02-12T09:45:03.969Z,1029.1
2023-02-12T09:46:03.937Z,1029.1
2023-02-12T09:47:03.935Z,1029.1
2023-02-12T09:48:03.884Z,1029.1
2023-02-12T09:49:03.904Z,1029.1
2023-02-12T09:50:03.935Z,1029.1
2023-02-12T09:51:03.983Z,1029.1
2023-02-12T09:52:05.453Z,1029.1
2023-02-12T09:53:04.039Z,1029.1
2023-02-12T09:54:03.935Z,1029.1
2023-02-12T09:55:03.912Z,1029.1
2023-02-12T09:56:03.895Z,1029.2
2023-02-12T09:57:03.913Z,1029.2
2023-02-12T09:58:03.966Z,1029.1
2023-02-12T09:59:03.988Z,1029.2
2023-02-12T10:00:03.909Z,1029.2
2023-02-12T10:01:03.948Z,1029.2
2023-02-12T10:02:03.969Z,1029.2
2023-02-12T10:03:05.505Z,1029.2
2023-02-12T10:04:03.951Z,1029.2
2023-02-12T10:05:04.073Z,1029.1
2023-02-12T10:06:03.929Z,1029.2
2023-02-12T10:07:03.956Z,1029.2
2023-02-12T10:08:04.002Z,1029.2
2023-02-12T10:09:03.947Z,1029.2
2023-02-12T10:10:06.283Z,1029.1
2023-02-12T10:11:04.230Z,1029.1
2023-02-12T10:12:04.881Z,1029.1
2023-02-12T10:13:03.945Z,1029.1
2023-02-12T10:14:03.942Z,1029.1
2023-02-12T10:15:03.935Z,1029.2
2023-02-12T10:16:03.914Z,1029.1
2023-02-12T10:17:03.945Z,1029.1
2023-02-12T10:18:03.893Z,1029.1
2023-02-12T10:20:38.483Z,1029.1
2023-02-12T10:21:06.288Z,1029.1
2023-02-12T10:22:04.337Z,1029.0
2023-02-12T10:23:04.346Z,1029.1
2023-02-12T10:24:04.319Z,1029.1
2023-02-12T10:25:04.291Z,1029.1
2023-02-12T10:26:04.314Z,1029.0
2023-02-12T10:27:04.274Z,1029.1
2023-02-12T10:28:05.058Z,1029.1
2023-02-12T10:29:04.363Z,1029.1
2023-02-12T10:30:04.302Z,1029.1
2023-02-12T10:31:04.455Z,1029.1
2023-02-12T10:32:04.306Z,1029.0
2023-02-12T10:33:04.305Z,1029.0
2023-02-12T10:34:04.307Z,1029.0
2023-02-12T10:35:04.332Z,1029.0
2023-02-12T10:36:04.294Z,1029.0
2023-02-12T10:37:04.289Z,1029.0
2023-02-12T10:38:04.312Z,1029.0
2023-02-12T10:39:04.298Z,1029.0
2023-02-12T10:40:04.300Z,1029.0
2023-02-12T10:41:04.305Z,1029.0
2023-02-12T10:42:04.289Z,1029.0
2023-02-12T10:43:04.282Z,1029.0
2023-02-12T10:44:04.379Z,1028.9
2023-02-12T10:45:04.281Z,1028.9
2023-02-12T10:46:04.345Z,1028.9
2023-02-12T10:47:04.342Z,1028.9
2023-02-12T10:48:04.351Z,1028.9
2023-02-12T10:49:04.271Z,1028.9
2023-02-12T10:50:04.358Z,1028.8
2023-02-12T10:51:04.275Z,1028.9
2023-02-12T10:52:04.300Z,1028.9
2023-02-12T10:53:04.331Z,1028.9
2023-02-12T10:54:05.420Z,1028.8
2023-02-12T10:55:04.293Z,1028.8
2023-02-12T10:56:04.314Z,1028.8
2023-02-12T10:57:04.266Z,1028.8
2023-02-12T10:58:04.325Z,1028.8
2023-02-12T10:59:04.305Z,1028.8
2023-02-12T11:00:04.286Z,1028.8
2023-02-12T11:01:04.275Z,1028.8
2023-02-12T11:02:04.403Z,1028.8
2023-02-12T11:03:04.264Z,1028.8
2023-02-12T11:04:04.385Z,1028.7
2023-02-12T11:05:04.334Z,1028.7
2023-02-12T11:06:04.313Z,1028.7
2023-02-12T11:07:04.283Z,1028.7
2023-02-12T11:08:04.295Z,1028.7
2023-02-12T11:09:04.308Z,1028.8
2023-02-12T11:10:04.294Z,1028.7
2023-02-12T11:11:04.335Z,1028.7
2023-02-12T11:12:04.321Z,1028.7
2023-02-12T11:13:04.305Z,1028.7
2023-02-12T11:14:04.322Z,1028.7
2023-02-12T11:15:04.326Z,1028.7
2023-02-12T11:16:04.328Z,1028.7
2023-02-12T11:17:04.328Z,1028.7
2023-02-12T11:18:05.597Z,1028.7
2023-02-12T11:19:04.286Z,1028.6
2023-02-12T11:20:04.360Z,1028.5
2023-02-12T11:21:04.283Z,1028.5
2023-02-12T11:22:04.302Z,1028.5
2023-02-12T11:23:04.316Z,1028.5
2023-02-12T11:24:05.089Z,1028.5
2023-02-12T11:25:04.281Z,1028.5
2023-02-12T11:26:04.316Z,1028.5
2023-02-12T11:27:04.290Z,1028.5
2023-02-12T11:28:04.348Z,1028.5
2023-02-12T11:29:04.424Z,1028.4
2023-02-12T11:31:51.394Z,1028.4
2023-02-12T11:31:57.176Z,1028.4
2023-02-12T11:32:04.421Z,1028.4
2023-02-12T11:33:04.368Z,1028.4
2023-02-12T11:34:04.324Z,1028.4
2023-02-12T11:35:04.361Z,1028.4
2023-02-12T11:36:06.754Z,1028.4
2023-02-12T11:37:04.290Z,1028.4
2023-02-12T11:38:04.334Z,1028.3
2023-02-12T11:39:04.303Z,1028.4
2023-02-12T11:40:04.316Z,1028.3
2023-02-12T11:41:04.317Z,1028.3
2023-02-12T11:42:04.321Z,1028.3
2023-02-12T11:43:04.288Z,1028.3
2023-02-12T11:44:04.320Z,1028.3
2023-02-12T11:45:04.305Z,1028.3
2023-02-12T11:46:04.811Z,1028.3
2023-02-12T11:47:04.324Z,1028.3
2023-02-12T11:48:04.318Z,1028.3
2023-02-12T11:49:04.375Z,1028.2
2023-02-12T11:50:04.472Z,1028.2
2023-02-12T11:51:04.305Z,1028.2
2023-02-12T11:52:04.324Z,1028.2
2023-02-12T11:53:04.325Z,1028.2
2023-02-12T11:54:04.328Z,1028.2
2023-02-12T11:55:04.316Z,1028.2
2023-02-12T11:56:04.785Z,1028.2
2023-02-12T11:57:04.294Z,1028.2
2023-02-12T11:58:04.339Z,1028.3
2023-02-12T11:59:04.327Z,1028.2
2023-02-12T12:00:04.342Z,1028.2
2023-02-12T12:01:04.327Z,1028.2
2023-02-12T12:02:04.441Z,1028.2
2023-02-12T12:03:04.340Z,1028.2
2023-02-12T12:04:04.335Z,1028.2
2023-02-12T12:05:04.369Z,1028.2
2023-02-12T12:06:04.325Z,1028.2
2023-02-12T12:07:04.351Z,1028.2
2023-02-12T12:08:04.385Z,1028.2
2023-02-12T12:09:04.329Z,1028.2
2023-02-12T12:10:04.338Z,1028.2
2023-02-12T12:11:04.352Z,1028.1
2023-02-12T12:12:04.359Z,1028.1
2023-02-12T12:13:04.310Z,1028.1
2023-02-12T12:14:04.355Z,1028.1
2023-02-12T12:15:04.326Z,1028.1
2023-02-12T12:16:04.435Z,1028.1
2023-02-12T12:17:04.336Z,1028.1
2023-02-12T12:18:04.323Z,1028.1
2023-02-12T12:19:04.303Z,1028.1
2023-02-12T12:20:04.328Z,1028.1
2023-02-12T12:21:04.336Z,1028.1
2023-02-12T12:22:04.331Z,1028.1
2023-02-12T12:23:04.364Z,1028.1
2023-02-12T12:24:04.343Z,1028.1
2023-02-12T12:25:06.267Z,1028.1
2023-02-12T12:26:04.471Z,1028.1
2023-02-12T12:27:04.334Z,1028.0
2023-02-12T12:29:42.935Z,1028.1
2023-02-12T12:30:04.640Z,1028.0
2023-02-12T12:31:06.590Z,1028.0
2023-02-12T12:32:04.669Z,1028.0
2023-02-12T12:33:04.653Z,1028.0
2023-02-12T12:34:04.614Z,1028.0
2023-02-12T12:35:04.681Z,1028.0
2023-02-12T12:36:04.622Z,1028.0
2023-02-12T12:37:04.662Z,1028.0